Terminal Aerodrome Forecast
Issued by NWS

Home | Current Version | Previous Version | Text Only | Print | Product List | Glossary On
Versions: 1 2 3 4 5 6 7 8 9 10 11 12 13 14 15 16 17 18 19 20 21 22 23
000
FTUS41 KBOX 302328
TAFACK
TAF
KACK 302328Z 3100/3124 22010G18KT 1/4SM FG VCSH OVC002
     FM310300 22012KT 1SM -SHRA BR OVC001
     FM311000 23010KT 2SM BR VCSH OVC001
     FM311300 23010KT 3SM BR VCSH OVC035
     FM311600 22010KT P6SM BKN250=

USA.gov is the U.S. government's official web portal to all federal, state and local government web resources and services.